Time;durP1;ratioP1;P1;durP2;ratioP2;P2;SDS_P1;SDS_P2;PMS_P1;PMS_P2;Temp;Humidity;BMP_temperature;BMP_pressure;BME280_temperature;BME280_humidity;BME280_pressure;Samples;Min_cycle;Max_cycle;Signal;HPM_P1;HPM_P2
2021/07/04 00:01:07;;;;;;;6.23;4.73;;;;;;;;;;4995285;28;20187;-82
2021/07/04 00:03:33;;;;;;;5.03;3.67;;;;;;;;;;4999782;28;20436;-82
2021/07/04 00:05:59;;;;;;;4.55;3.60;;;;;;;;;;4988203;28;21863;-82
2021/07/04 00:08:25;;;;;;;7.60;4.22;;;;;;;;;;4990246;28;20256;-82
2021/07/04 00:10:51;;;;;;;4.53;3.88;;;;;;;;;;5007427;28;20188;-83
2021/07/04 00:13:18;;;;;;;4.43;4.03;;;;;;;;;;5007945;28;20187;-82
2021/07/04 00:15:44;;;;;;;4.95;4.45;;;;;;;;;;5007006;28;20501;-82
2021/07/04 00:18:12;;;;;;;5.53;4.05;;;;;;;;;;4988031;28;20198;-82
2021/07/04 00:20:39;;;;;;;3.75;3.40;;;;;;;;;;5003815;28;20697;-82
2021/07/04 00:23:05;;;;;;;3.65;3.33;;;;;;;;;;5007708;28;20187;-82
2021/07/04 00:25:31;;;;;;;5.07;4.00;;;;;;;;;;5013877;28;20241;-82
2021/07/04 00:27:57;;;;;;;4.03;3.65;;;;;;;;;;5016130;28;20193;-82
2021/07/04 00:30:24;;;;;;;4.13;3.80;;;;;;;;;;5005300;28;20243;-82
2021/07/04 00:32:50;;;;;;;4.25;3.53;;;;;;;;;;5009370;28;20255;-82
2021/07/04 00:35:17;;;;;;;4.45;4.05;;;;;;;;;;5012809;28;20250;-82
2021/07/04 00:37:43;;;;;;;4.15;3.85;;;;;;;;;;5013405;28;20219;-82
2021/07/04 00:40:10;;;;;;;9.93;3.90;;;;;;;;;;5014392;28;20210;-83
2021/07/04 00:42:36;;;;;;;4.05;3.75;;;;;;;;;;5013481;28;20771;-82
2021/07/04 00:45:05;;;;;;;3.33;3.13;;;;;;;;;;5008237;28;20222;-81
2021/07/04 00:47:31;;;;;;;3.78;3.40;;;;;;;;;;5006179;28;20632;-83
2021/07/04 00:49:57;;;;;;;3.60;3.27;;;;;;;;;;5021583;28;20254;-82
2021/07/04 00:52:23;;;;;;;5.70;3.10;;;;;;;;;;5004281;28;20438;-82
2021/07/04 00:54:50;;;;;;;5.50;4.10;;;;;;;;;;5014048;28;20437;-82
2021/07/04 00:57:16;;;;;;;5.18;3.70;;;;;;;;;;5010133;28;20533;-82
2021/07/04 00:59:42;;;;;;;4.07;3.77;;;;;;;;;;5009664;28;20420;-82
2021/07/04 01:02:08;;;;;;;5.35;3.47;;;;;;;;;;4996210;28;20422;-82
2021/07/04 01:04:34;;;;;;;4.47;3.60;;;;;;;;;;5013521;28;20207;-82
2021/07/04 01:07:00;;;;;;;4.20;3.17;;;;;;;;;;4998491;28;20226;-82
2021/07/04 01:09:26;;;;;;;7.72;4.05;;;;;;;;;;5011462;28;20203;-82
2021/07/04 01:11:52;;;;;;;4.22;3.80;;;;;;;;;;5009057;28;20176;-82
2021/07/04 01:14:18;;;;;;;5.00;2.80;;;;;;;;;;4996491;28;20182;-82
2021/07/04 01:16:45;;;;;;;4.03;3.72;;;;;;;;;;5013682;28;20896;-82
2021/07/04 01:19:14;;;;;;;4.30;3.90;;;;;;;;;;5012874;28;20202;-82
2021/07/04 01:21:42;;;;;;;5.47;4.30;;;;;;;;;;4998329;28;20589;-81
2021/07/04 01:24:08;;;;;;;4.82;4.43;;;;;;;;;;5009660;28;20269;-82
2021/07/04 01:26:34;;;;;;;6.50;3.75;;;;;;;;;;4994198;28;20481;-82
2021/07/04 01:29:00;;;;;;;3.70;3.40;;;;;;;;;;4997461;28;20223;-82
2021/07/04 01:31:26;;;;;;;4.40;3.83;;;;;;;;;;5013381;28;20250;-82
2021/07/04 01:33:52;;;;;;;4.95;4.13;;;;;;;;;;5013051;28;20509;-82
2021/07/04 01:36:18;;;;;;;4.67;4.27;;;;;;;;;;5000030;28;20246;-81
2021/07/04 01:38:44;;;;;;;3.92;3.53;;;;;;;;;;5010893;28;20578;-82
2021/07/04 01:41:11;;;;;;;5.17;4.30;;;;;;;;;;5013002;28;20176;-82
2021/07/04 01:43:37;;;;;;;4.38;3.95;;;;;;;;;;4994731;28;20439;-83
2021/07/04 01:46:03;;;;;;;5.45;3.85;;;;;;;;;;5009757;28;20239;-82
2021/07/04 01:48:29;;;;;;;5.33;4.83;;;;;;;;;;5008104;28;20179;-83
2021/07/04 01:50:55;;;;;;;3.83;3.47;;;;;;;;;;5005016;28;20574;-81
2021/07/04 01:53:22;;;;;;;5.00;4.45;;;;;;;;;;4993743;28;20183;-82
2021/07/04 01:55:48;;;;;;;3.90;3.60;;;;;;;;;;5009908;28;20198;-82
2021/07/04 01:58:14;;;;;;;5.75;4.32;;;;;;;;;;5009277;28;20184;-82
2021/07/04 02:00:41;;;;;;;6.55;4.10;;;;;;;;;;5009766;28;20702;-82
2021/07/04 02:03:11;;;;;;;5.15;4.65;;;;;;;;;;5005253;28;20199;-82
2021/07/04 02:05:37;;;;;;;6.20;4.55;;;;;;;;;;4998275;28;20203;-82
2021/07/04 02:08:04;;;;;;;5.72;3.90;;;;;;;;;;4994531;28;20191;-81
2021/07/04 02:10:31;;;;;;;4.50;4.10;;;;;;;;;;5009780;28;20230;-82
2021/07/04 02:12:58;;;;;;;4.07;3.70;;;;;;;;;;5008870;28;20187;-82
2021/07/04 02:15:26;;;;;;;5.90;3.65;;;;;;;;;;4992639;28;20222;-82
2021/07/04 02:17:52;;;;;;;6.20;4.72;;;;;;;;;;4989828;28;20202;-82
2021/07/04 02:20:18;;;;;;;6.40;3.20;;;;;;;;;;5007781;28;20210;-82
2021/07/04 02:22:44;;;;;;;6.35;4.00;;;;;;;;;;5009687;28;20641;-82
2021/07/04 02:25:10;;;;;;;4.10;3.80;;;;;;;;;;4995822;28;20291;-83
2021/07/04 02:27:36;;;;;;;5.40;4.70;;;;;;;;;;5000989;28;20440;-82
2021/07/04 02:30:02;;;;;;;5.13;3.93;;;;;;;;;;5004124;28;20457;-82
2021/07/04 02:32:28;;;;;;;5.22;3.85;;;;;;;;;;4992009;28;20415;-82
2021/07/04 02:34:54;;;;;;;6.30;4.10;;;;;;;;;;5008838;28;20195;-82
2021/07/04 02:37:20;;;;;;;3.85;3.53;;;;;;;;;;5009250;28;20469;-82
2021/07/04 02:39:46;;;;;;;5.60;4.33;;;;;;;;;;4993734;28;20206;-82
2021/07/04 02:42:12;;;;;;;4.67;4.00;;;;;;;;;;4989801;28;20502;-82
2021/07/04 02:44:38;;;;;;;5.30;4.10;;;;;;;;;;4990924;28;20430;-82
2021/07/04 02:47:04;;;;;;;5.20;4.00;;;;;;;;;;5008631;28;20968;-82
2021/07/04 02:49:30;;;;;;;6.13;3.63;;;;;;;;;;4993775;28;20478;-82
2021/07/04 02:51:56;;;;;;;4.30;3.90;;;;;;;;;;5008966;28;20191;-82
2021/07/04 02:54:22;;;;;;;6.63;4.73;;;;;;;;;;5005929;28;20798;-81
2021/07/04 02:56:48;;;;;;;3.97;3.67;;;;;;;;;;5004046;28;20418;-82
2021/07/04 02:59:14;;;;;;;3.83;3.40;;;;;;;;;;5001344;28;20437;-82
2021/07/04 03:01:40;;;;;;;4.10;3.60;;;;;;;;;;5002832;28;20438;-81
2021/07/04 03:04:06;;;;;;;4.73;4.00;;;;;;;;;;4997198;28;20446;-81
2021/07/04 03:06:32;;;;;;;4.60;4.20;;;;;;;;;;4992317;28;20497;-81
2021/07/04 03:08:58;;;;;;;4.53;4.05;;;;;;;;;;4988839;28;20415;-81
2021/07/04 03:11:24;;;;;;;4.97;3.80;;;;;;;;;;4990081;28;20190;-82
2021/07/04 03:13:50;;;;;;;4.95;4.03;;;;;;;;;;5008413;28;20435;-82
2021/07/04 03:16:16;;;;;;;3.80;3.27;;;;;;;;;;4993020;28;20225;-82
2021/07/04 03:18:42;;;;;;;5.00;3.83;;;;;;;;;;4993061;28;20811;-82
2021/07/04 03:21:08;;;;;;;6.10;3.63;;;;;;;;;;5003573;28;20487;-81
2021/07/04 03:23:34;;;;;;;3.53;3.23;;;;;;;;;;4988682;28;20430;-82
2021/07/04 03:26:00;;;;;;;3.92;3.53;;;;;;;;;;5008122;28;20614;-82
2021/07/04 03:28:26;;;;;;;4.25;3.85;;;;;;;;;;5008281;28;20477;-82
2021/07/04 03:30:52;;;;;;;5.63;4.10;;;;;;;;;;5007972;28;20469;-81
2021/07/04 03:33:18;;;;;;;4.47;3.60;;;;;;;;;;5004974;28;20468;-82
2021/07/04 03:35:44;;;;;;;4.45;4.03;;;;;;;;;;4989175;28;20435;-82
2021/07/04 03:38:10;;;;;;;4.68;3.35;;;;;;;;;;4990455;28;20179;-82
2021/07/04 03:40:36;;;;;;;5.88;3.83;;;;;;;;;;4999662;28;20298;-82
2021/07/04 03:43:02;;;;;;;6.97;3.35;;;;;;;;;;4997395;28;20254;-82
2021/07/04 03:45:28;;;;;;;4.43;3.10;;;;;;;;;;4991048;28;20257;-82
2021/07/04 03:47:54;;;;;;;6.63;3.35;;;;;;;;;;4988633;28;20651;-82
2021/07/04 03:50:21;;;;;;;5.75;3.55;;;;;;;;;;5003874;28;20191;-81
2021/07/04 03:52:53;;;;;;;4.15;3.00;;;;;;;;;;4992931;28;20605;-82
2021/07/04 03:55:19;;;;;;;4.78;3.65;;;;;;;;;;5007606;28;20277;-82
2021/07/04 03:57:45;;;;;;;6.30;4.03;;;;;;;;;;5007802;28;20198;-82
2021/07/04 04:00:11;;;;;;;3.50;2.67;;;;;;;;;;5004331;28;20187;-82
2021/07/04 04:02:37;;;;;;;8.63;3.05;;;;;;;;;;5004404;28;20419;-82
2021/07/04 04:05:04;;;;;;;6.18;3.30;;;;;;;;;;5014827;28;20199;-81
2021/07/04 04:07:30;;;;;;;5.25;3.10;;;;;;;;;;5012265;28;20238;-81
2021/07/04 04:09:56;;;;;;;4.65;2.97;;;;;;;;;;5006237;28;20187;-81
2021/07/04 04:12:22;;;;;;;5.78;3.30;;;;;;;;;;5004790;28;20187;-82
2021/07/04 04:14:49;;;;;;;3.78;3.47;;;;;;;;;;5002827;28;20240;-82
2021/07/04 04:17:15;;;;;;;3.67;2.60;;;;;;;;;;4991992;28;20211;-81
2021/07/04 04:19:41;;;;;;;3.23;2.93;;;;;;;;;;5006890;28;20274;-82
2021/07/04 04:22:07;;;;;;;4.10;3.78;;;;;;;;;;5006899;28;20591;-81
2021/07/04 04:24:33;;;;;;;4.18;2.55;;;;;;;;;;4991491;28;20255;-82
2021/07/04 04:26:59;;;;;;;4.50;3.10;;;;;;;;;;5002781;28;20651;-81
2021/07/04 04:29:25;;;;;;;2.50;2.30;;;;;;;;;;4988658;28;20186;-82
2021/07/04 04:31:51;;;;;;;3.25;2.50;;;;;;;;;;5007408;28;20502;-81
2021/07/04 04:34:17;;;;;;;5.30;2.77;;;;;;;;;;5007023;28;20283;-81
2021/07/04 04:36:43;;;;;;;3.87;2.90;;;;;;;;;;5007085;28;20444;-81
2021/07/04 04:39:09;;;;;;;2.70;2.50;;;;;;;;;;4987974;28;20446;-81
2021/07/04 04:41:36;;;;;;;5.80;3.10;;;;;;;;;;4987929;28;20430;-81
2021/07/04 04:44:02;;;;;;;3.60;3.00;;;;;;;;;;5007231;28;20187;-81
2021/07/04 04:46:29;;;;;;;4.47;2.80;;;;;;;;;;4992186;28;20207;-81
2021/07/04 04:48:54;;;;;;;2.67;2.47;;;;;;;;;;5007076;28;20695;-81
2021/07/04 04:51:21;;;;;;;6.47;2.50;;;;;;;;;;5003272;28;20214;-81
2021/07/04 04:53:47;;;;;;;3.92;2.35;;;;;;;;;;5002675;28;20791;-81
2021/07/04 04:56:13;;;;;;;2.93;2.60;;;;;;;;;;5013331;28;20235;-81
2021/07/04 04:58:39;;;;;;;2.70;2.50;;;;;;;;;;5010444;28;20461;-81
2021/07/04 05:01:05;;;;;;;3.08;2.30;;;;;;;;;;5007682;28;20442;-81
2021/07/04 05:03:31;;;;;;;2.60;2.38;;;;;;;;;;5015074;28;20200;-82
2021/07/04 05:05:57;;;;;;;2.83;2.35;;;;;;;;;;5016170;28;20207;-81
2021/07/04 05:08:25;;;;;;;1.93;1.83;;;;;;;;;;4989091;28;20324;-82
2021/07/04 05:10:52;;;;;;;2.75;2.30;;;;;;;;;;4991609;28;20442;-81
2021/07/04 05:13:18;;;;;;;4.05;2.35;;;;;;;;;;5006932;28;20180;-82
2021/07/04 05:15:44;;;;;;;3.53;2.40;;;;;;;;;;5007111;28;20223;-81
2021/07/04 05:18:10;;;;;;;2.92;2.20;;;;;;;;;;5003808;28;20187;-81
2021/07/04 05:20:36;;;;;;;3.23;2.53;;;;;;;;;;4990227;28;20211;-81
2021/07/04 05:23:02;;;;;;;2.75;2.10;;;;;;;;;;5010906;28;20438;-81
2021/07/04 05:25:28;;;;;;;3.17;2.13;;;;;;;;;;4995302;28;20215;-81
2021/07/04 05:27:54;;;;;;;4.53;2.58;;;;;;;;;;5010853;28;20194;-81
2021/07/04 05:30:20;;;;;;;3.10;2.80;;;;;;;;;;4992042;28;20183;-81
2021/07/04 05:32:46;;;;;;;3.65;2.50;;;;;;;;;;5006204;28;20427;-81
2021/07/04 05:35:12;;;;;;;3.30;2.50;;;;;;;;;;4992026;28;20179;-81
2021/07/04 05:37:38;;;;;;;3.60;1.95;;;;;;;;;;5010316;28;20474;-81
2021/07/04 05:40:14;;;;;;;3.78;2.58;;;;;;;;;;4994913;28;20190;-81
2021/07/04 05:42:40;;;;;;;4.10;2.30;;;;;;;;;;5009874;28;20187;-81
2021/07/04 05:45:09;;;;;;;2.78;2.58;;;;;;;;;;4989983;28;20196;-81
2021/07/04 05:47:35;;;;;;;4.57;2.80;;;;;;;;;;5001174;28;20167;-81
2021/07/04 05:50:01;;;;;;;4.33;2.03;;;;;;;;;;5017660;28;20206;-82
2021/07/04 05:52:27;;;;;;;3.00;2.20;;;;;;;;;;5015131;28;20435;-81
2021/07/04 05:54:53;;;;;;;5.83;2.63;;;;;;;;;;5009129;28;20442;-81
2021/07/04 05:57:18;;;;;;;2.67;2.17;;;;;;;;;;4991983;28;20430;-81
2021/07/04 05:59:44;;;;;;;3.07;2.00;;;;;;;;;;5011439;28;20422;-82
2021/07/04 06:02:10;;;;;;;6.47;2.40;;;;;;;;;;5004121;28;20422;-82
2021/07/04 06:04:36;;;;;;;2.50;2.10;;;;;;;;;;5013145;28;20451;-81
2021/07/04 06:07:03;;;;;;;2.23;1.90;;;;;;;;;;4993925;28;20469;-82
2021/07/04 06:09:29;;;;;;;4.90;2.15;;;;;;;;;;5005102;28;20442;-83
2021/07/04 06:11:55;;;;;;;2.80;2.17;;;;;;;;;;5005324;28;20227;-81
2021/07/04 06:14:21;;;;;;;5.30;2.17;;;;;;;;;;4993528;28;20447;-81
2021/07/04 06:16:47;;;;;;;4.72;2.53;;;;;;;;;;4994107;28;20467;-81
2021/07/04 06:19:13;;;;;;;4.25;2.40;;;;;;;;;;5009038;28;20187;-81
2021/07/04 06:21:41;;;;;;;3.65;2.50;;;;;;;;;;4999319;28;20747;-82
2021/07/04 06:24:07;;;;;;;6.80;2.33;;;;;;;;;;5003386;28;20222;-81
2021/07/04 06:26:33;;;;;;;2.90;2.70;;;;;;;;;;4990273;28;20207;-81
2021/07/04 06:28:59;;;;;;;4.10;2.20;;;;;;;;;;4993444;28;20242;-83
2021/07/04 06:31:28;;;;;;;2.28;2.08;;;;;;;;;;5009120;28;20184;-81
2021/07/04 06:33:57;;;;;;;3.30;2.05;;;;;;;;;;5011021;28;20181;-82
2021/07/04 06:36:23;;;;;;;3.55;1.95;;;;;;;;;;4999432;28;20183;-82
2021/07/04 06:38:49;;;;;;;2.65;2.47;;;;;;;;;;5004082;28;20172;-81
2021/07/04 06:41:15;;;;;;;1.93;1.83;;;;;;;;;;5008690;28;20226;-82
2021/07/04 06:43:42;;;;;;;3.20;2.17;;;;;;;;;;5003442;28;20450;-81
2021/07/04 06:46:08;;;;;;;2.13;1.65;;;;;;;;;;5001061;28;20200;-80
2021/07/04 06:48:34;;;;;;;4.05;2.00;;;;;;;;;;5007342;28;20188;-77
2021/07/04 06:51:00;;;;;;;5.07;2.00;;;;;;;;;;5002840;28;20585;-80
2021/07/04 06:53:26;;;;;;;2.40;2.08;;;;;;;;;;5003741;28;20179;-79
2021/07/04 06:55:52;;;;;;;2.08;1.95;;;;;;;;;;5000932;28;20202;-79
2021/07/04 06:58:18;;;;;;;5.10;2.10;;;;;;;;;;5003336;28;20211;-79
2021/07/04 07:00:44;;;;;;;4.50;1.93;;;;;;;;;;4999522;28;20659;-80
2021/07/04 07:03:10;;;;;;;2.67;1.77;;;;;;;;;;5011223;28;20434;-78
2021/07/04 07:05:36;;;;;;;3.03;2.07;;;;;;;;;;5002910;28;20459;-79
2021/07/04 07:08:02;;;;;;;2.70;1.70;;;;;;;;;;5001819;28;20472;-79
2021/07/04 07:10:28;;;;;;;8.30;2.20;;;;;;;;;;5002488;28;20794;-79
2021/07/04 07:12:54;;;;;;;3.70;1.80;;;;;;;;;;5012641;28;20645;-79
2021/07/04 07:15:20;;;;;;;2.00;1.80;;;;;;;;;;5009424;28;20191;-80
2021/07/04 07:17:46;;;;;;;2.15;1.75;;;;;;;;;;5009317;28;20547;-78
2021/07/04 07:20:12;;;;;;;3.33;2.00;;;;;;;;;;5001386;28;20203;-78
2021/07/04 07:22:39;;;;;;;2.38;1.77;;;;;;;;;;5011983;28;20255;-78
2021/07/04 07:25:05;;;;;;;2.92;1.80;;;;;;;;;;5010794;28;20274;-78
2021/07/04 07:27:31;;;;;;;3.33;2.20;;;;;;;;;;5017193;28;20199;-79
2021/07/04 07:29:57;;;;;;;3.47;2.00;;;;;;;;;;5016308;28;20184;-79
2021/07/04 07:32:25;;;;;;;2.67;1.97;;;;;;;;;;4994495;28;20176;-78
2021/07/04 07:34:51;;;;;;;3.90;1.75;;;;;;;;;;5002115;28;20812;-80
2021/07/04 07:37:18;;;;;;;2.33;2.10;;;;;;;;;;5013707;28;20253;-79
2021/07/04 07:39:44;;;;;;;1.95;1.70;;;;;;;;;;5001105;28;20448;-78
2021/07/04 07:42:10;;;;;;;1.90;1.73;;;;;;;;;;5003689;28;20194;-78
2021/07/04 07:44:36;;;;;;;2.10;1.80;;;;;;;;;;5002774;28;21127;-77
2021/07/04 07:47:03;;;;;;;1.98;1.85;;;;;;;;;;4999210;28;20480;-80
2021/07/04 07:49:29;;;;;;;1.90;1.80;;;;;;;;;;5014473;28;20193;-77
2021/07/04 07:51:55;;;;;;;3.13;2.03;;;;;;;;;;5011140;28;20215;-79
2021/07/04 07:54:22;;;;;;;2.80;1.97;;;;;;;;;;5005452;28;20471;-78
2021/07/04 07:56:48;;;;;;;2.85;1.90;;;;;;;;;;5006319;28;20434;-79
2021/07/04 07:59:14;;;;;;;2.05;1.67;;;;;;;;;;4999866;28;20181;-79
2021/07/04 08:01:40;;;;;;;2.53;1.70;;;;;;;;;;5002060;28;20193;-78
2021/07/04 08:04:06;;;;;;;6.25;2.00;;;;;;;;;;5006951;28;20276;-78
2021/07/04 08:06:32;;;;;;;6.10;3.33;;;;;;;;;;5001750;28;20241;-79
2021/07/04 08:08:58;;;;;;;5.93;2.75;;;;;;;;;;5007738;28;20494;-81
2021/07/04 08:11:25;;;;;;;2.27;2.10;;;;;;;;;;5002560;28;20545;-82
2021/07/04 08:13:51;;;;;;;4.00;2.22;;;;;;;;;;5000429;28;20957;-82
2021/07/04 08:16:17;;;;;;;2.60;2.40;;;;;;;;;;5003257;28;20228;-84
2021/07/04 08:18:43;;;;;;;3.85;2.55;;;;;;;;;;5017998;28;20195;-81
2021/07/04 08:21:09;;;;;;;6.55;3.78;;;;;;;;;;4990538;28;20615;-82
2021/07/04 08:23:35;;;;;;;3.17;2.50;;;;;;;;;;5002994;28;20183;-79
2021/07/04 08:26:01;;;;;;;10.18;7.25;;;;;;;;;;5014335;28;20533;-80
2021/07/04 08:28:27;;;;;;;11.20;7.83;;;;;;;;;;5009847;28;20202;-79
2021/07/04 08:30:53;;;;;;;6.23;5.47;;;;;;;;;;5016092;28;20497;-82
2021/07/04 08:33:19;;;;;;;3.90;3.50;;;;;;;;;;5003751;28;20920;-80
2021/07/04 08:35:45;;;;;;;5.93;3.70;;;;;;;;;;4988143;28;20500;-80
2021/07/04 08:38:11;;;;;;;4.32;2.83;;;;;;;;;;4989979;28;20621;-80
2021/07/04 08:40:37;;;;;;;2.93;2.40;;;;;;;;;;5007194;28;20195;-80
2021/07/04 08:43:04;;;;;;;1.92;1.83;;;;;;;;;;5006325;28;20438;-80
2021/07/04 08:45:34;;;;;;;2.33;1.70;;;;;;;;;;5005837;28;20768;-80
2021/07/04 08:48:00;;;;;;;2.10;1.90;;;;;;;;;;4987946;28;20180;-80
2021/07/04 08:50:26;;;;;;;3.28;1.45;;;;;;;;;;4990223;28;20200;-80
2021/07/04 08:52:52;;;;;;;4.87;1.47;;;;;;;;;;5009543;28;20211;-79
2021/07/04 08:55:18;;;;;;;3.00;1.30;;;;;;;;;;5011214;28;20435;-78
2021/07/04 08:57:44;;;;;;;1.50;1.40;;;;;;;;;;4996417;28;20409;-77
2021/07/04 09:00:15;;;;;;;4.90;3.72;;;;;;;;;;5006645;28;20254;-77
2021/07/04 09:02:42;;;;;;;1.48;1.38;;;;;;;;;;5002746;28;20231;-79
2021/07/04 09:05:09;;;;;;;1.40;1.30;;;;;;;;;;5010587;28;20291;-76
2021/07/04 09:07:36;;;;;;;1.85;1.45;;;;;;;;;;4996334;28;20194;-77
2021/07/04 09:10:04;;;;;;;2.15;1.75;;;;;;;;;;5010890;28;20202;-76
2021/07/04 09:12:48;;;;;;;1.40;1.30;;;;;;;;;;5008336;28;20222;-77
2021/07/04 09:15:15;;;;;;;2.88;1.65;;;;;;;;;;4991908;28;20204;-77
2021/07/04 09:17:45;;;;;;;2.35;1.35;;;;;;;;;;5006735;28;20228;-78
2021/07/04 09:20:12;;;;;;;2.28;1.45;;;;;;;;;;5010139;28;20184;-76
2021/07/04 09:22:40;;;;;;;2.08;1.42;;;;;;;;;;4995504;28;20180;-77
2021/07/04 09:25:06;;;;;;;3.42;1.30;;;;;;;;;;4995530;28;20242;-78
2021/07/04 09:27:32;;;;;;;1.70;1.27;;;;;;;;;;4993971;28;20187;-76
2021/07/04 09:29:58;;;;;;;1.13;1.03;;;;;;;;;;4990909;28;20422;-78
2021/07/04 09:32:27;;;;;;;1.93;1.10;;;;;;;;;;4992594;28;20454;-76
2021/07/04 09:34:57;;;;;;;1.70;1.60;;;;;;;;;;5009955;28;20454;-78
2021/07/04 09:37:40;;;;;;;1.15;1.08;;;;;;;;;;5010758;28;20209;-77
2021/07/04 09:40:25;;;;;;;2.20;1.60;;;;;;;;;;5010095;28;20197;-76
2021/07/04 09:42:56;;;;;;;1.55;1.42;;;;;;;;;;4994423;28;20273;-77
2021/07/04 09:45:22;;;;;;;1.75;1.55;;;;;;;;;;5007573;28;20226;-77
2021/07/04 09:47:53;;;;;;;2.80;1.92;;;;;;;;;;4990658;28;20177;-77
2021/07/04 09:50:19;;;;;;;2.38;1.75;;;;;;;;;;5009279;28;20587;-76
2021/07/04 09:52:55;;;;;;;5.05;1.80;;;;;;;;;;5009964;28;20190;-76
2021/07/04 09:55:21;;;;;;;2.67;1.75;;;;;;;;;;5010079;28;20192;-76
2021/07/04 09:58:00;;;;;;;5.15;2.33;;;;;;;;;;4994941;28;20278;-76
2021/07/04 10:00:28;;;;;;;2.65;1.75;;;;;;;;;;4992681;28;20685;-76
2021/07/04 10:03:13;;;;;;;2.78;1.92;;;;;;;;;;5004822;28;20250;-76
2021/07/04 10:05:40;;;;;;;2.72;1.63;;;;;;;;;;5002054;28;20206;-77
2021/07/04 10:08:23;;;;;;;3.38;1.33;;;;;;;;;;5008077;28;20192;-76
2021/07/04 10:10:50;;;;;;;2.35;1.50;;;;;;;;;;5015156;28;20196;-76
2021/07/04 10:13:17;;;;;;;2.92;1.98;;;;;;;;;;5015742;28;20184;-77
2021/07/04 10:15:43;;;;;;;2.50;1.80;;;;;;;;;;5009521;28;20236;-75
2021/07/04 10:18:10;;;;;;;1.85;1.75;;;;;;;;;;5004611;28;20217;-75
2021/07/04 10:20:36;;;;;;;1.33;1.23;;;;;;;;;;4991144;28;20180;-75
2021/07/04 10:23:05;;;;;;;1.70;1.60;;;;;;;;;;5017872;28;20441;-75
2021/07/04 10:25:31;;;;;;;1.80;1.15;;;;;;;;;;4998862;28;21068;-75
2021/07/04 10:27:57;;;;;;;1.40;1.30;;;;;;;;;;4994696;28;20193;-75
2021/07/04 10:30:24;;;;;;;1.65;1.30;;;;;;;;;;5006510;28;20453;-75
2021/07/04 10:33:06;;;;;;;3.42;1.85;;;;;;;;;;5007567;28;20233;-76
2021/07/04 10:35:32;;;;;;;3.00;1.67;;;;;;;;;;5016439;28;20214;-77
2021/07/04 10:38:12;;;;;;;1.85;1.75;;;;;;;;;;5003482;28;20438;-75
2021/07/04 10:40:38;;;;;;;4.40;4.00;;;;;;;;;;5019226;28;20500;-76
2021/07/04 10:43:04;;;;;;;7.47;2.23;;;;;;;;;;5017273;28;21051;-75
2021/07/04 10:45:36;;;;;;;4.40;2.10;;;;;;;;;;5007322;28;20811;-76
2021/07/04 10:48:31;;;;;;;2.27;1.50;;;;;;;;;;5004818;28;20448;-75
2021/07/04 10:51:17;;;;;;;7.28;1.75;;;;;;;;;;5002012;28;20440;-74
2021/07/04 10:53:44;;;;;;;1.70;1.60;;;;;;;;;;5007405;28;20195;-76
2021/07/04 10:56:29;;;;;;;1.40;1.30;;;;;;;;;;5018046;28;20426;-75
2021/07/04 10:59:04;;;;;;;2.57;1.53;;;;;;;;;;4993512;28;20247;-76
2021/07/04 11:01:49;;;;;;;2.00;1.80;;;;;;;;;;4994425;28;20501;-78
2021/07/04 11:04:33;;;;;;;3.53;1.90;;;;;;;;;;5008199;28;20472;-76
2021/07/04 11:07:00;;;;;;;1.90;1.70;;;;;;;;;;5009121;28;20440;-75
2021/07/04 11:09:45;;;;;;;2.17;1.40;;;;;;;;;;5019385;28;20412;-76
2021/07/04 11:12:27;;;;;;;3.33;1.40;;;;;;;;;;5004600;28;20433;-75
2021/07/04 11:15:11;;;;;;;6.10;3.80;;;;;;;;;;5002444;28;20390;-75
2021/07/04 11:17:59;;;;;;;2.20;1.93;;;;;;;;;;5003529;28;20469;-78
2021/07/04 11:20:29;;;;;;;2.90;2.67;;;;;;;;;;5017665;28;20469;-77
2021/07/04 11:22:56;;;;;;;5.53;3.67;;;;;;;;;;4994398;28;20431;-76
2021/07/04 11:25:24;;;;;;;2.27;1.47;;;;;;;;;;4996615;28;20409;-75
2021/07/04 11:28:09;;;;;;;1.13;1.03;;;;;;;;;;5014929;28;20452;-75
2021/07/04 11:30:35;;;;;;;2.40;1.40;;;;;;;;;;5015768;28;20405;-78
2021/07/04 11:33:35;;;;;;;2.33;1.20;;;;;;;;;;5013358;28;20429;-78
2021/07/04 11:36:06;;;;;;;2.10;1.47;;;;;;;;;;4984861;28;20433;-76
2021/07/04 11:38:34;;;;;;;1.87;1.77;;;;;;;;;;5001318;28;20519;-77
2021/07/04 11:41:00;;;;;;;6.87;2.80;;;;;;;;;;4997011;28;20461;-76
2021/07/04 11:43:27;;;;;;;1.93;0.97;;;;;;;;;;4999304;28;21029;-78
2021/07/04 11:45:55;;;;;;;7.40;6.97;;;;;;;;;;4999263;28;20473;-76
2021/07/04 11:48:22;;;;;;;1.07;0.97;;;;;;;;;;4993992;28;20437;-76
2021/07/04 11:50:51;;;;;;;1.33;0.70;;;;;;;;;;4999711;28;20441;-76
2021/07/04 11:53:18;;;;;;;1.17;1.07;;;;;;;;;;5000582;28;20444;-75
2021/07/04 11:55:59;;;;;;;1.00;0.90;;;;;;;;;;4998941;28;20445;-75
2021/07/04 11:58:26;;;;;;;1.77;1.17;;;;;;;;;;5001734;28;20443;-76
2021/07/04 12:00:52;;;;;;;2.30;1.10;;;;;;;;;;5000005;28;20438;-75
2021/07/04 12:03:24;;;;;;;0.83;0.80;;;;;;;;;;4992817;28;20438;-75
2021/07/04 12:05:51;;;;;;;1.90;1.30;;;;;;;;;;5000821;28;21020;-77
2021/07/04 12:08:17;;;;;;;3.07;1.47;;;;;;;;;;5001502;28;20433;-76
2021/07/04 12:10:47;;;;;;;1.43;0.80;;;;;;;;;;4982094;28;21116;-76
2021/07/04 12:13:13;;;;;;;2.27;1.07;;;;;;;;;;4998045;28;20466;-75
2021/07/04 12:15:39;;;;;;;2.77;0.90;;;;;;;;;;5006337;28;20481;-74
2021/07/04 12:18:15;;;;;;;1.67;0.80;;;;;;;;;;5000599;28;20502;-74
2021/07/04 12:20:42;;;;;;;4.57;2.60;;;;;;;;;;5003170;28;20436;-77
2021/07/04 12:23:12;;;;;;;7.60;4.13;;;;;;;;;;4988624;28;20527;-75
2021/07/04 12:25:42;;;;;;;5.77;1.80;;;;;;;;;;5006714;28;20506;-77
2021/07/04 12:28:12;;;;;;;2.97;1.97;;;;;;;;;;4997370;28;20484;-82
2021/07/04 12:30:38;;;;;;;3.87;2.10;;;;;;;;;;5001143;28;20549;-83
2021/07/04 12:33:06;;;;;;;19.67;5.87;;;;;;;;;;4999589;28;20832;-81
2021/07/04 12:35:32;;;;;;;2.93;1.80;;;;;;;;;;5005156;28;20439;-81
2021/07/04 12:37:59;;;;;;;2.10;1.40;;;;;;;;;;4999058;28;20442;-81
2021/07/04 12:40:31;;;;;;;3.40;1.85;;;;;;;;;;4997036;28;20444;-78
2021/07/04 12:43:07;;;;;;;8.00;1.25;;;;;;;;;;5011285;28;20194;-79
2021/07/04 12:45:33;;;;;;;2.40;1.30;;;;;;;;;;5008279;28;20699;-79
2021/07/04 12:48:06;;;;;;;2.00;1.43;;;;;;;;;;5000764;28;20995;-78
2021/07/04 12:50:46;;;;;;;1.57;1.40;;;;;;;;;;5001933;28;20401;-80
2021/07/04 12:53:12;;;;;;;2.30;1.57;;;;;;;;;;5009019;28;20400;-82
2021/07/04 12:55:46;;;;;;;2.80;1.80;;;;;;;;;;4995616;28;20418;-80
2021/07/04 12:58:21;;;;;;;2.27;1.80;;;;;;;;;;5006216;28;20468;-80
2021/07/04 13:00:47;;;;;;;2.60;1.30;;;;;;;;;;5012750;28;20454;-79
2021/07/04 13:03:13;;;;;;;1.80;1.40;;;;;;;;;;5017139;28;20434;-79
2021/07/04 13:05:40;;;;;;;2.40;1.10;;;;;;;;;;4987647;28;20869;-78
2021/07/04 13:08:12;;;;;;;1.53;1.33;;;;;;;;;;5009049;28;20453;-76
2021/07/04 13:10:39;;;;;;;2.70;1.70;;;;;;;;;;4997429;28;20473;-78
2021/07/04 13:13:09;;;;;;;2.30;1.30;;;;;;;;;;5014468;28;20435;-79
2021/07/04 13:15:35;;;;;;;3.20;1.60;;;;;;;;;;4994502;28;20505;-79
2021/07/04 13:18:01;;;;;;;2.33;1.40;;;;;;;;;;5000778;28;20449;-78
2021/07/04 13:20:28;;;;;;;2.80;1.20;;;;;;;;;;5002359;28;20426;-79
2021/07/04 13:22:55;;;;;;;2.10;1.30;;;;;;;;;;5014231;28;20569;-78
2021/07/04 13:25:31;;;;;;;1.87;1.40;;;;;;;;;;5001785;28;20438;-80
2021/07/04 13:28:05;;;;;;;1.87;1.30;;;;;;;;;;4998601;28;20438;-80
2021/07/04 13:30:44;;;;;;;2.50;1.47;;;;;;;;;;5013786;28;20444;-80
2021/07/04 13:33:10;;;;;;;3.00;1.23;;;;;;;;;;5012076;28;20445;-81
2021/07/04 13:35:40;;;;;;;2.20;1.40;;;;;;;;;;4998146;28;20445;-78
2021/07/04 13:38:12;;;;;;;2.03;1.37;;;;;;;;;;4993983;28;20475;-79
2021/07/04 13:40:38;;;;;;;2.90;1.40;;;;;;;;;;5007357;28;20466;-77
2021/07/04 13:43:05;;;;;;;2.60;1.30;;;;;;;;;;5002051;28;20442;-79
2021/07/04 13:45:31;;;;;;;1.50;1.40;;;;;;;;;;5002890;28;20528;-82
2021/07/04 13:48:02;;;;;;;2.00;1.53;;;;;;;;;;5020110;28;20493;-82
2021/07/04 13:50:28;;;;;;;1.87;1.70;;;;;;;;;;5004834;28;20421;-80
2021/07/04 13:52:54;;;;;;;2.20;1.50;;;;;;;;;;5010294;28;20485;-80
2021/07/04 13:55:20;;;;;;;2.60;1.40;;;;;;;;;;5001074;28;20525;-79
2021/07/04 13:57:46;;;;;;;2.37;1.20;;;;;;;;;;5018870;28;20444;-77
2021/07/04 14:00:13;;;;;;;1.40;1.10;;;;;;;;;;5018272;28;20438;-79
2021/07/04 14:02:39;;;;;;;1.53;1.10;;;;;;;;;;4999867;28;20431;-77
2021/07/04 14:05:06;;;;;;;2.33;1.50;;;;;;;;;;5000765;28;20448;-77
2021/07/04 14:07:33;;;;;;;0.97;0.97;;;;;;;;;;4999578;28;20473;-78
2021/07/04 14:09:59;;;;;;;1.20;1.10;;;;;;;;;;5015053;28;20451;-76
2021/07/04 14:12:25;;;;;;;1.10;1.00;;;;;;;;;;5013804;28;20442;-75
2021/07/04 14:14:51;;;;;;;3.43;1.27;;;;;;;;;;5017576;28;20409;-76
2021/07/04 14:17:17;;;;;;;1.00;0.87;;;;;;;;;;5000943;28;20470;-76
2021/07/04 14:19:49;;;;;;;1.53;1.13;;;;;;;;;;5002475;28;20450;-77
2021/07/04 14:22:15;;;;;;;3.43;1.20;;;;;;;;;;5015653;28;20489;-77
2021/07/04 14:24:41;;;;;;;2.53;1.13;;;;;;;;;;5000699;28;20421;-78
2021/07/04 14:27:07;;;;;;;1.00;0.90;;;;;;;;;;5000374;28;20532;-79
2021/07/04 14:29:33;;;;;;;0.93;0.80;;;;;;;;;;5004460;28;20424;-79
2021/07/04 14:31:59;;;;;;;2.00;1.00;;;;;;;;;;5021894;28;20412;-80
2021/07/04 14:34:25;;;;;;;1.73;0.87;;;;;;;;;;5016909;28;20523;-78
2021/07/04 14:36:51;;;;;;;1.10;0.70;;;;;;;;;;5001243;28;20505;-80
2021/07/04 14:39:17;;;;;;;1.00;0.77;;;;;;;;;;5015794;28;20447;-79
2021/07/04 14:41:44;;;;;;;1.63;1.33;;;;;;;;;;5004968;28;20426;-77
2021/07/04 14:44:12;;;;;;;1.13;1.03;;;;;;;;;;5001142;28;20405;-78
2021/07/04 14:46:38;;;;;;;0.80;0.80;;;;;;;;;;4999737;28;20445;-77